createdAt,value
2022-08-04T00:02:27.274Z,2.55
2022-08-04T00:05:02.729Z,2.83
2022-08-04T00:08:02.741Z,2.40
2022-08-04T00:10:31.778Z,2.88
2022-08-04T00:13:01.576Z,2.60
2022-08-04T00:15:30.081Z,3.20
2022-08-04T00:18:04.049Z,3.45
2022-08-04T00:20:34.537Z,2.95
2022-08-04T00:23:02.607Z,2.58
2022-08-04T00:25:29.846Z,2.60
2022-08-04T00:28:00.777Z,2.70
2022-08-04T00:30:28.419Z,3.05
2022-08-04T00:32:57.680Z,2.47
2022-08-04T00:35:25.297Z,2.95
2022-08-04T00:37:53.494Z,2.80
2022-08-04T00:41:03.915Z,2.92
2022-08-04T00:43:38.320Z,3.10
2022-08-04T00:46:31.144Z,2.72
2022-08-04T00:49:19.580Z,2.65
2022-08-04T00:52:32.054Z,2.87
2022-08-04T00:55:17.230Z,2.90
2022-08-04T00:57:59.440Z,2.70
2022-08-04T01:00:28.225Z,2.78
2022-08-04T01:06:24.106Z,2.47
2022-08-04T01:09:21.589Z,2.30
2022-08-04T01:12:20.025Z,2.67
2022-08-04T01:15:05.748Z,2.22
2022-08-04T01:17:35.709Z,2.50
2022-08-04T01:20:10.677Z,3.10
2022-08-04T01:23:03.419Z,2.55
2022-08-04T01:26:02.288Z,2.50
2022-08-04T01:28:46.935Z,2.85
2022-08-04T01:31:35.392Z,2.30
2022-08-04T01:34:06.536Z,2.67
2022-08-04T01:36:35.783Z,2.63
2022-08-04T01:39:24.064Z,2.50
2022-08-04T01:41:57.986Z,2.38
2022-08-04T01:44:30.998Z,2.65
2022-08-04T01:47:00.796Z,2.50
2022-08-04T01:49:39.972Z,2.67
2022-08-04T01:52:10.258Z,2.63
2022-08-04T01:54:41.128Z,2.65
2022-08-04T01:57:38.031Z,2.75
2022-08-04T01:59:59.633Z,2.07
2022-08-04T02:02:26.863Z,2.40
2022-08-04T02:04:54.111Z,2.58
2022-08-04T02:07:43.458Z,2.58
2022-08-04T02:10:30.104Z,2.72
2022-08-04T02:13:03.434Z,2.63
2022-08-04T02:15:41.059Z,2.65
2022-08-04T02:18:22.580Z,2.97
2022-08-04T02:20:54.489Z,2.42
2022-08-04T02:23:41.184Z,2.53
2022-08-04T02:26:22.707Z,2.60
2022-08-04T02:29:13.573Z,2.80
2022-08-04T02:31:49.931Z,2.45
2022-08-04T02:34:42.444Z,2.60
2022-08-04T02:37:11.948Z,2.60
2022-08-04T02:39:48.767Z,2.60
2022-08-04T02:42:17.312Z,3.40
2022-08-04T02:44:50.248Z,2.65
2022-08-04T02:47:21.302Z,2.85
2022-08-04T02:49:51.133Z,2.90
2022-08-04T02:52:21.625Z,2.90
2022-08-04T02:54:53.269Z,2.63
2022-08-04T02:57:24.393Z,2.72
2022-08-04T03:00:15.042Z,3.03
2022-08-04T03:03:34.514Z,3.00
2022-08-04T03:06:13.795Z,3.00
2022-08-04T03:08:55.735Z,2.95
2022-08-04T03:12:05.891Z,2.78
2022-08-04T03:14:59.815Z,2.90
2022-08-04T03:17:57.700Z,2.58
2022-08-04T03:20:39.974Z,2.73
2022-08-04T03:23:42.008Z,3.28
2022-08-04T03:26:42.969Z,3.53
2022-08-04T03:29:23.607Z,2.90
2022-08-04T03:32:13.121Z,3.35
2022-08-04T03:34:52.442Z,3.20
2022-08-04T03:37:20.188Z,3.05
2022-08-04T03:40:08.787Z,3.22
2022-08-04T03:42:58.969Z,4.15
2022-08-04T03:45:41.472Z,2.83
2022-08-04T03:48:14.541Z,3.37
2022-08-04T03:51:36.515Z,3.17
2022-08-04T03:54:44.800Z,3.00
2022-08-04T03:57:20.875Z,3.05
2022-08-04T04:00:13.105Z,3.13
2022-08-04T04:03:29.142Z,3.40
2022-08-04T04:06:34.233Z,3.53
2022-08-04T04:09:21.098Z,3.15
2022-08-04T04:12:12.680Z,3.10
2022-08-04T04:14:39.784Z,3.22
2022-08-04T04:17:22.027Z,3.07
2022-08-04T04:19:49.364Z,3.63
2022-08-04T04:22:45.492Z,3.47
2022-08-04T04:25:27.523Z,3.03
2022-08-04T04:28:46.148Z,3.60
2022-08-04T04:31:16.772Z,3.87
2022-08-04T04:33:58.545Z,3.35
2022-08-04T04:36:51.667Z,3.40
2022-08-04T04:39:24.498Z,3.70
2022-08-04T04:42:07.406Z,3.78
2022-08-04T04:44:40.619Z,3.73
2022-08-04T04:48:07.057Z,3.63
2022-08-04T04:50:49.644Z,3.80
2022-08-04T04:53:38.459Z,3.58
2022-08-04T04:56:16.497Z,3.75
2022-08-04T04:58:43.767Z,3.73
2022-08-04T05:01:42.481Z,3.97
2022-08-04T05:04:43.972Z,4.10
2022-08-04T05:07:52.944Z,4.25
2022-08-04T05:10:23.086Z,4.20
2022-08-04T05:14:35.068Z,4.20
2022-08-04T05:16:32.342Z,4.07
2022-08-04T05:19:21.048Z,4.80
2022-08-04T05:21:49.862Z,4.43
2022-08-04T05:24:19.991Z,4.88
2022-08-04T05:26:52.222Z,4.20
2022-08-04T05:29:31.905Z,4.85
2022-08-04T05:32:04.213Z,4.75
2022-08-04T05:34:38.740Z,4.95
2022-08-04T05:37:16.235Z,5.10
2022-08-04T05:39:47.864Z,4.77
2022-08-04T05:42:15.716Z,4.43
2022-08-04T05:44:47.592Z,5.13
2022-08-04T05:47:18.568Z,4.75
2022-08-04T05:49:45.895Z,4.90
2022-08-04T05:52:30.880Z,4.37
2022-08-04T05:55:00.640Z,4.68
2022-08-04T05:57:29.028Z,5.70
2022-08-04T05:59:58.767Z,5.70
2022-08-04T06:02:27.898Z,5.80
2022-08-04T06:04:56.450Z,5.37
2022-08-04T06:07:26.297Z,5.68
2022-08-04T06:09:53.967Z,5.32
2022-08-04T06:12:25.854Z,5.53
2022-08-04T06:14:59.393Z,5.32
2022-08-04T06:19:56.272Z,5.37
2022-08-04T06:20:34.770Z,5.50
2022-08-04T06:23:07.304Z,5.20
2022-08-04T06:25:41.684Z,5.10
2022-08-04T06:28:10.290Z,4.78
2022-08-04T06:30:39.196Z,4.97
2022-08-04T06:33:24.856Z,5.40
2022-08-04T06:35:55.327Z,5.60
2022-08-04T06:38:27.585Z,5.03
2022-08-04T06:41:00.263Z,5.22
2022-08-04T06:43:28.513Z,5.20
2022-08-04T06:46:02.290Z,4.63
2022-08-04T06:51:35.559Z,4.88
2022-08-04T06:54:08.466Z,4.93
2022-08-04T06:56:36.945Z,4.57
2022-08-04T06:59:05.006Z,5.05
2022-08-04T07:01:33.121Z,5.32
2022-08-04T07:04:00.459Z,4.60
2022-08-04T07:06:27.836Z,5.28
2022-08-04T07:08:56.441Z,4.30
2022-08-04T07:11:24.143Z,4.05
2022-08-04T07:13:51.900Z,4.43
2022-08-04T07:16:21.690Z,4.30
2022-08-04T07:22:15.942Z,4.10
2022-08-04T07:24:41.052Z,3.85
2022-08-04T07:27:09.370Z,4.15
2022-08-04T07:29:37.335Z,4.00
2022-08-04T07:32:05.790Z,4.90
2022-08-04T07:34:34.955Z,4.20
2022-08-04T07:37:02.514Z,4.15
2022-08-04T07:39:32.138Z,4.68
2022-08-04T07:42:19.381Z,4.28
2022-08-04T07:44:47.052Z,5.00
2022-08-04T07:47:14.420Z,4.37
2022-08-04T07:49:55.900Z,4.38
2022-08-04T07:55:18.607Z,4.63
2022-08-04T07:57:46.091Z,5.25
2022-08-04T08:00:14.999Z,5.23
2022-08-04T08:02:43.368Z,5.03
2022-08-04T08:05:13.873Z,5.57
2022-08-04T08:07:50.017Z,5.18
2022-08-04T08:10:21.814Z,5.25
2022-08-04T08:12:51.548Z,4.40
2022-08-04T08:15:20.641Z,4.80
2022-08-04T08:20:39.102Z,4.80
2022-08-04T08:23:34.214Z,5.38
2022-08-04T08:26:01.774Z,5.00
2022-08-04T08:28:29.312Z,4.78
2022-08-04T08:30:56.470Z,5.32
2022-08-04T08:33:26.804Z,4.97
2022-08-04T08:35:56.609Z,5.13
2022-08-04T08:38:53.266Z,4.60
2022-08-04T08:41:20.423Z,5.38
2022-08-04T08:44:05.500Z,5.47
2022-08-04T08:46:49.462Z,4.38
2022-08-04T08:50:00.855Z,5.88
2022-08-04T08:53:01.025Z,4.67
2022-08-04T08:55:39.822Z,5.43
2022-08-04T08:58:38.133Z,5.43
2022-08-04T09:01:34.884Z,5.43
2022-08-04T09:04:32.323Z,4.85
2022-08-04T09:07:24.208Z,5.30
2022-08-04T09:10:16.352Z,5.55
2022-08-04T09:13:31.549Z,5.50
2022-08-04T09:16:11.702Z,5.70
2022-08-04T09:19:04.409Z,6.38
2022-08-04T09:21:41.766Z,5.20
2022-08-04T09:24:36.819Z,5.05
2022-08-04T09:27:16.806Z,5.15
2022-08-04T09:29:52.641Z,3.70
2022-08-04T09:32:46.934Z,3.85
2022-08-04T09:36:01.259Z,2.97
2022-08-04T09:38:37.427Z,3.60
2022-08-04T09:41:20.750Z,3.05
2022-08-04T09:44:50.827Z,3.03
2022-08-04T09:47:54.960Z,2.80
2022-08-04T09:50:41.057Z,2.60
2022-08-04T09:53:35.897Z,2.85
2022-08-04T09:56:10.229Z,3.30
2022-08-04T09:59:15.417Z,2.70
2022-08-04T10:01:44.801Z,3.13
2022-08-04T10:04:14.925Z,2.60
2022-08-04T10:07:14.308Z,2.28
2022-08-04T10:10:00.259Z,2.47
2022-08-04T10:12:32.120Z,2.60
2022-08-04T10:15:24.500Z,2.63
2022-08-04T10:18:19.985Z,2.70
2022-08-04T10:21:13.626Z,2.53
2022-08-04T10:23:56.776Z,2.75
2022-08-04T10:26:55.493Z,2.88
2022-08-04T10:29:46.839Z,2.83
2022-08-04T10:32:16.634Z,2.73
2022-08-04T10:34:58.868Z,2.47
2022-08-04T10:37:56.505Z,2.83
2022-08-04T10:40:40.954Z,2.08
2022-08-04T10:43:22.755Z,2.30
2022-08-04T10:46:10.330Z,2.23
2022-08-04T10:48:55.788Z,2.70
2022-08-04T10:51:58.572Z,2.70
2022-08-04T10:54:50.344Z,2.38
2022-08-04T10:57:29.600Z,2.70
2022-08-04T11:00:03.542Z,2.13
2022-08-04T11:02:43.259Z,1.90
2022-08-04T11:05:10.519Z,2.70
2022-08-04T11:07:41.221Z,2.13
2022-08-04T11:10:09.769Z,2.65
2022-08-04T11:12:38.775Z,2.20
2022-08-04T11:15:14.280Z,2.45
2022-08-04T11:17:45.966Z,2.55
2022-08-04T11:20:34.117Z,2.10
2022-08-04T11:23:03.766Z,2.90
2022-08-04T11:25:51.597Z,2.40
2022-08-04T11:28:32.415Z,1.88
2022-08-04T11:31:11.135Z,2.53
2022-08-04T11:34:03.097Z,2.47
2022-08-04T11:36:55.112Z,2.10
2022-08-04T11:39:33.047Z,2.50
2022-08-04T11:42:19.832Z,2.22
2022-08-04T11:44:53.496Z,2.70
2022-08-04T11:47:41.504Z,2.03
2022-08-04T11:50:14.520Z,2.70
2022-08-04T11:52:45.460Z,2.47
2022-08-04T11:55:16.271Z,2.30
2022-08-04T11:57:54.212Z,2.33
2022-08-04T12:00:23.471Z,2.35
2022-08-04T12:03:09.309Z,2.70
2022-08-04T12:05:46.224Z,2.37
2022-08-04T12:08:54.085Z,2.47
2022-08-04T12:11:54.190Z,2.30
2022-08-04T12:14:44.330Z,2.33
2022-08-04T12:17:15.878Z,2.63
2022-08-04T12:20:04.950Z,2.10
2022-08-04T12:22:51.298Z,2.38
2022-08-04T12:25:25.035Z,2.58
2022-08-04T12:28:05.675Z,2.65
2022-08-04T12:30:58.688Z,2.38
2022-08-04T12:34:03.488Z,2.47
2022-08-04T12:36:37.963Z,2.58
2022-08-04T12:39:11.538Z,2.45
2022-08-04T12:42:08.047Z,2.53
2022-08-04T12:44:39.354Z,2.45
2022-08-04T12:47:28.152Z,2.47
2022-08-04T12:50:02.376Z,2.42
2022-08-04T12:52:59.167Z,2.78
2022-08-04T12:55:25.692Z,2.63
2022-08-04T12:57:54.778Z,2.95
2022-08-04T13:00:41.137Z,2.50
2022-08-04T13:03:17.780Z,3.33
2022-08-04T13:05:45.656Z,2.60
2022-08-04T13:08:15.529Z,2.72
2022-08-04T13:10:47.937Z,2.58
2022-08-04T13:13:20.664Z,2.33
2022-08-04T13:16:08.976Z,2.83
2022-08-04T13:18:49.055Z,2.88
2022-08-04T13:21:23.153Z,2.80
2022-08-04T13:24:22.703Z,2.72
2022-08-04T13:27:03.571Z,2.60
2022-08-04T13:29:58.263Z,2.42
2022-08-04T13:32:30.088Z,2.63
2022-08-04T13:35:01.049Z,2.40
2022-08-04T13:37:35.898Z,2.28
2022-08-04T13:40:05.643Z,2.87
2022-08-04T13:42:36.239Z,2.50
2022-08-04T13:45:06.283Z,2.60
2022-08-04T13:47:37.242Z,2.65
2022-08-04T13:50:15.716Z,3.03
2022-08-04T13:52:44.189Z,2.30
2022-08-04T13:55:32.186Z,2.65
2022-08-04T13:58:02.301Z,2.88
2022-08-04T14:00:41.511Z,2.60
2022-08-04T14:03:23.244Z,2.70
2022-08-04T14:06:28.248Z,2.90
2022-08-04T14:09:00.780Z,2.67
2022-08-04T14:12:09.845Z,2.90
2022-08-04T14:14:31.388Z,2.15
2022-08-04T14:17:19.856Z,2.75
2022-08-04T14:20:01.359Z,2.53
2022-08-04T14:22:30.329Z,2.78
2022-08-04T14:25:15.865Z,2.47
2022-08-04T14:27:49.011Z,2.45
2022-08-04T14:30:32.214Z,3.08
2022-08-04T14:34:02.340Z,2.67
2022-08-04T14:36:01.739Z,2.45
2022-08-04T14:38:54.185Z,2.92
2022-08-04T14:41:32.544Z,2.83
2022-08-04T14:44:02.979Z,3.28
2022-08-04T14:46:36.615Z,2.80
2022-08-04T14:49:11.019Z,2.38
2022-08-04T14:51:52.599Z,2.75
2022-08-04T14:54:31.972Z,2.30
2022-08-04T14:57:03.627Z,2.40
2022-08-04T14:59:59.164Z,2.40
2022-08-04T15:02:29.789Z,2.53
2022-08-04T15:04:57.981Z,2.60
2022-08-04T15:07:25.979Z,2.45
2022-08-04T15:09:54.156Z,2.30
2022-08-04T15:12:22.065Z,2.60
2022-08-04T15:14:49.664Z,2.58
2022-08-04T15:17:29.906Z,2.30
2022-08-04T15:19:58.478Z,2.47
2022-08-04T15:22:25.863Z,2.60
2022-08-04T15:24:55.541Z,2.47
2022-08-04T15:27:27.512Z,2.50
2022-08-04T15:30:01.878Z,2.53
2022-08-04T15:32:36.076Z,2.75
2022-08-04T15:35:10.800Z,2.80
2022-08-04T15:37:46.317Z,2.70
2022-08-04T15:40:32.701Z,2.33
2022-08-04T15:43:19.078Z,2.97
2022-08-04T15:46:42.678Z,2.08
2022-08-04T15:48:49.023Z,2.67
2022-08-04T15:51:30.462Z,2.57
2022-08-04T15:54:03.403Z,2.75
2022-08-04T15:56:31.311Z,2.88
2022-08-04T15:58:58.706Z,3.00
2022-08-04T16:01:27.760Z,2.95
2022-08-04T16:03:59.779Z,2.27
2022-08-04T16:06:29.873Z,2.80
2022-08-04T16:08:59.927Z,2.40
2022-08-04T16:11:31.757Z,3.00
2022-08-04T16:13:59.375Z,2.55
2022-08-04T16:16:39.576Z,2.13
2022-08-04T16:19:13.455Z,2.42
2022-08-04T16:21:51.750Z,2.67
2022-08-04T16:24:27.768Z,2.13
2022-08-04T16:27:00.530Z,2.60
2022-08-04T16:29:35.197Z,2.37
2022-08-04T16:32:39.621Z,1.88
2022-08-04T16:35:20.558Z,1.80
2022-08-04T16:37:47.798Z,2.15
2022-08-04T16:40:50.086Z,2.75
2022-08-04T16:43:18.343Z,1.87
2022-08-04T16:46:03.633Z,2.60
2022-08-04T16:48:33.017Z,2.58
2022-08-04T16:51:10.836Z,2.50
2022-08-04T16:53:52.055Z,2.67
2022-08-04T16:56:33.973Z,2.57
2022-08-04T16:59:12.842Z,2.05
2022-08-04T17:01:48.957Z,2.63
2022-08-04T17:04:16.555Z,2.50
2022-08-04T17:06:46.481Z,2.50
2022-08-04T17:09:14.717Z,2.07
2022-08-04T17:11:43.932Z,2.20
2022-08-04T17:14:11.459Z,2.58
2022-08-04T17:16:41.775Z,2.60
2022-08-04T17:19:24.153Z,2.85
2022-08-04T17:22:06.754Z,2.10
2022-08-04T17:24:35.976Z,2.70
2022-08-04T17:28:08.930Z,2.33
2022-08-04T17:29:55.881Z,2.20
2022-08-04T17:32:24.025Z,2.20
2022-08-04T17:34:54.674Z,2.00
2022-08-04T17:37:39.470Z,1.90
2022-08-04T17:40:13.437Z,2.35
2022-08-04T17:42:41.803Z,2.05
2022-08-04T17:48:08.946Z,1.70
2022-08-04T17:50:36.726Z,2.30
2022-08-04T17:53:11.688Z,2.10
2022-08-04T17:55:49.267Z,2.30
2022-08-04T17:58:23.081Z,2.42
2022-08-04T18:01:23.761Z,2.33
2022-08-04T18:03:53.505Z,2.40
2022-08-04T18:06:23.319Z,2.40
2022-08-04T18:08:58.200Z,2.45
2022-08-04T18:11:29.558Z,2.63
2022-08-04T18:14:09.936Z,2.73
2022-08-04T18:16:46.577Z,2.78
2022-08-04T18:19:18.865Z,2.45
2022-08-04T18:22:00.527Z,2.65
2022-08-04T18:24:35.275Z,2.60
2022-08-04T18:27:18.472Z,2.33
2022-08-04T18:30:14.437Z,2.53
2022-08-04T18:32:34.102Z,2.88
2022-08-04T18:35:05.274Z,2.60
2022-08-04T18:38:05.489Z,2.63
2022-08-04T18:40:28.085Z,2.27
2022-08-04T18:43:00.072Z,2.65
2022-08-04T18:45:34.602Z,2.53
2022-08-04T18:48:14.151Z,3.10
2022-08-04T18:51:10.182Z,3.05
2022-08-04T18:53:35.753Z,3.20
2022-08-04T18:56:19.985Z,2.70
2022-08-04T18:58:53.725Z,3.05
2022-08-04T19:01:21.651Z,2.58
2022-08-04T19:03:58.112Z,2.60
2022-08-04T19:06:26.018Z,2.80
2022-08-04T19:08:54.793Z,2.95
2022-08-04T19:11:38.158Z,2.88
2022-08-04T19:14:13.194Z,2.92
2022-08-04T19:16:45.981Z,3.10
2022-08-04T19:19:15.275Z,3.07
2022-08-04T19:24:34.643Z,2.95
2022-08-04T19:27:08.297Z,2.70
2022-08-04T19:29:41.210Z,3.25
2022-08-04T19:32:14.448Z,3.47
2022-08-04T19:34:46.452Z,3.05
2022-08-04T19:37:56.168Z,3.50
2022-08-04T19:40:08.182Z,3.03
2022-08-04T19:42:37.179Z,3.15
2022-08-04T19:45:05.498Z,3.03
2022-08-04T19:48:16.098Z,2.78
2022-08-04T19:50:20.259Z,3.45
2022-08-04T19:52:52.712Z,3.70
2022-08-04T19:55:22.219Z,3.90
2022-08-04T19:57:53.115Z,4.70
2022-08-04T20:00:33.854Z,6.90
2022-08-04T20:03:11.526Z,5.75
2022-08-04T20:05:54.192Z,5.35
2022-08-04T20:08:26.400Z,6.03
2022-08-04T20:10:55.214Z,5.57
2022-08-04T20:13:25.178Z,5.30
2022-08-04T20:15:59.069Z,7.80
2022-08-04T20:18:35.624Z,8.80
2022-08-04T20:21:19.413Z,7.78
2022-08-04T20:23:52.417Z,6.20
2022-08-04T20:26:20.449Z,6.93
2022-08-04T20:31:34.944Z,5.95
2022-08-04T20:34:10.657Z,6.18
2022-08-04T20:36:37.801Z,6.30
2022-08-04T20:39:16.932Z,4.95
2022-08-04T20:41:44.896Z,4.60
2022-08-04T20:44:12.199Z,5.45
2022-08-04T20:46:39.337Z,4.30
2022-08-04T20:49:06.797Z,3.80
2022-08-04T20:51:39.759Z,3.08
2022-08-04T20:54:16.218Z,2.97
2022-08-04T20:56:50.553Z,3.00
2022-08-04T20:59:19.618Z,2.70
2022-08-04T21:01:49.533Z,2.90
2022-08-04T21:04:35.833Z,3.10
2022-08-04T21:07:06.151Z,3.10
2022-08-04T21:09:38.441Z,2.88
2022-08-04T21:12:26.922Z,3.20
2022-08-04T21:17:59.597Z,3.20
2022-08-04T21:20:33.233Z,3.30
2022-08-04T21:23:02.088Z,3.85
2022-08-04T21:25:30.933Z,4.43
2022-08-04T21:27:59.029Z,3.73
2022-08-04T21:30:36.977Z,4.25
2022-08-04T21:33:19.269Z,4.03
2022-08-04T21:35:47.151Z,4.00
2022-08-04T21:38:20.881Z,9.35
2022-08-04T21:40:56.645Z,3.70
2022-08-04T21:43:27.418Z,3.67
2022-08-04T21:45:56.908Z,3.47
2022-08-04T21:48:31.822Z,3.45
2022-08-04T21:54:13.269Z,3.30
2022-08-04T21:56:50.982Z,2.72
2022-08-04T22:02:08.551Z,2.75
2022-08-04T22:04:35.738Z,3.38
2022-08-04T22:07:04.891Z,3.20
2022-08-04T22:09:41.466Z,3.53
2022-08-04T22:12:10.289Z,3.72
2022-08-04T22:17:35.072Z,3.75
2022-08-04T22:20:03.347Z,3.50
2022-08-04T22:22:34.181Z,3.33
2022-08-04T22:25:12.382Z,3.35
2022-08-04T22:28:00.741Z,3.55
2022-08-04T22:30:36.438Z,3.33
2022-08-04T22:33:07.431Z,3.77
2022-08-04T22:35:44.062Z,2.80
2022-08-04T22:38:25.529Z,3.40
2022-08-04T22:41:10.219Z,3.50
2022-08-04T22:43:38.509Z,3.58
2022-08-04T22:46:19.035Z,3.20
2022-08-04T22:48:46.691Z,3.22
2022-08-04T22:51:14.764Z,3.38
2022-08-04T22:53:48.555Z,3.35
2022-08-04T22:56:37.987Z,3.22
2022-08-04T22:59:10.983Z,2.77
2022-08-04T23:02:00.765Z,3.10
2022-08-04T23:04:31.835Z,3.00
2022-08-04T23:07:09.036Z,2.40
2022-08-04T23:09:50.294Z,2.67
2022-08-04T23:12:27.247Z,2.43
2022-08-04T23:14:58.917Z,2.78
2022-08-04T23:17:28.178Z,2.90
2022-08-04T23:19:58.711Z,2.88
2022-08-04T23:22:42.178Z,2.85
2022-08-04T23:25:16.246Z,2.80
2022-08-04T23:27:51.628Z,3.10
2022-08-04T23:30:21.999Z,2.90
2022-08-04T23:32:53.400Z,2.88
2022-08-04T23:35:22.154Z,2.88
2022-08-04T23:37:57.323Z,3.10
2022-08-04T23:40:33.415Z,3.00
2022-08-04T23:43:12.093Z,2.67
2022-08-04T23:46:06.312Z,2.50
2022-08-04T23:48:36.781Z,3.00
2022-08-04T23:51:14.887Z,2.67
2022-08-04T23:54:02.066Z,2.33
2022-08-04T23:59:52.725Z,2.33
